KASE/ASE METAR and TAF weather

Enter ICAO airport designator
Station Type Date Time Source
KASE METAR 2020/05/29 18:53 UTC NOAA

KASE 291853Z VRB06G16KT 10SM FEW055 BKN090 BKN110 24/03 A3035 RMK AO2 RAB34E50 SLP154 P0000 T02390028


Station Type Date Time Source
KASE Decoded METAR 2020/05/29 18:53 UTC NOAA

ASPEN-PITKIN COUNTY AIRPORT, CO, United States (KASE) 39-14N 106-52W 2354M
May 29, 2020 - 02:53 PM EDT / 2020.05.29 1853 UTC
Wind: Variable at 7 MPH (6 KT) gusting to 18 MPH (16 KT):0
Visibility: 10 mile(s):0
Sky conditions: mostly cloudy
Precipitation last hour: A trace
Temperature: 75.0 F (23.9 C)
Dew Point: 37.0 F (2.8 C)
Relative Humidity: 25%
Pressure (altimeter): 30.35 in. Hg (1027 hPa)
ob: KASE 291853Z VRB06G16KT 10SM FEW055 BKN090 BKN110 24/03 A3035 RMK AO2 RAB34E50 SLP154 P0000 T02390028
cycle: 19

Station Type Date Time Source
KASE TAF 2020/05/29 18:36 UTC NOAA

TAF KASE 291734Z 2918/3018 33005KT P6SM FEW090 SCT200
FM292200 29008G15KT P6SM FEW090 SCT250
FM300200 22005KT P6SM FEW090 SCT200
FM300300 19005KT P6SM FEW090 SCT180

Example: see airport list